Sawyer, Michigan
Current Conditions -  °F | °C
As of 5:35 AM on Sunday 26 Oct 2014 (Local Time) from KMGC Reporting Station
Clear Clear  
Wind Chill: 52°   Ceiling: Unl
Heat Index: 52°   Visibility: 10mi
Dew Point: 34°   Wind: 8mph
Humidity: 50%   Direction: 330°NNW
Pressure: 29.99"   Gusts: NA
Location:  41.89°N, 86.59°W
Report Text: KMGC 260935Z AUTO 33007KT 10SM CLR 11/01 A2999 RMK AO2
Loading
Personal Weather Stations






























Interactive Weather Map
Tropical Storm Tracking
New forecast layout! Learn more

10-Day Weather Forecast

Advertisements
Track Severe Weather on mobile